createdAt,value
2023-05-03T00:00:33.537Z,86.09
2023-05-03T00:01:33.547Z,86.19
2023-05-03T00:02:33.601Z,86.40
2023-05-03T00:03:33.492Z,86.50
2023-05-03T00:04:33.446Z,85.89
2023-05-03T00:05:33.497Z,86.09
2023-05-03T00:06:33.537Z,85.78
2023-05-03T00:07:33.440Z,85.99
2023-05-03T00:08:33.420Z,86.09
2023-05-03T00:09:33.398Z,86.19
2023-05-03T00:10:33.365Z,86.30
2023-05-03T00:11:33.378Z,86.40
2023-05-03T00:12:33.342Z,85.99
2023-05-03T00:13:33.383Z,86.19
2023-05-03T00:14:33.327Z,86.30
2023-05-03T00:15:33.381Z,85.78
2023-05-03T00:16:33.331Z,85.99
2023-05-03T00:17:33.358Z,86.09
2023-05-03T00:18:33.313Z,86.09
2023-05-03T00:19:33.277Z,85.68
2023-05-03T00:20:33.255Z,85.47
2023-05-03T00:21:33.260Z,85.47
2023-05-03T00:22:33.251Z,85.47
2023-05-03T00:23:33.237Z,85.44
2023-05-03T00:24:33.200Z,85.74
2023-05-03T00:25:33.196Z,86.09
2023-05-03T00:26:33.154Z,86.09
2023-05-03T00:27:33.170Z,86.19
2023-05-03T00:28:33.148Z,86.50
2023-05-03T00:29:33.135Z,86.30
2023-05-03T00:30:33.129Z,86.60
2023-05-03T00:31:33.192Z,86.40
2023-05-03T00:32:33.094Z,86.19
2023-05-03T00:33:33.088Z,86.09
2023-05-03T00:34:33.091Z,86.40
2023-05-03T00:35:33.071Z,86.91
2023-05-03T00:36:33.860Z,86.60
2023-05-03T00:37:33.084Z,86.40
2023-05-03T00:38:33.005Z,86.50
2023-05-03T00:39:33.033Z,86.81
2023-05-03T00:40:33.014Z,86.71
2023-05-03T00:41:33.015Z,86.85
2023-05-03T00:42:32.947Z,86.95
2023-05-03T00:43:32.974Z,86.75
2023-05-03T00:44:32.957Z,87.05
2023-05-03T00:45:32.944Z,87.37
2023-05-03T00:46:32.954Z,87.46
2023-05-03T00:47:32.938Z,87.57
2023-05-03T00:48:32.878Z,87.88
2023-05-03T00:49:32.898Z,88.12
2023-05-03T00:50:32.870Z,88.23
2023-05-03T00:51:32.872Z,88.53
2023-05-03T00:52:32.822Z,88.43
2023-05-03T00:53:32.844Z,88.33
2023-05-03T00:54:32.795Z,88.33
2023-05-03T00:55:32.799Z,88.23
2023-05-03T00:56:38.017Z,88.33
2023-05-03T00:57:32.772Z,88.33
2023-05-03T00:58:32.736Z,88.64
2023-05-03T00:59:32.760Z,88.53
2023-05-03T01:00:32.724Z,88.33
2023-05-03T01:01:32.820Z,88.12
2023-05-03T01:02:32.755Z,88.23
2023-05-03T01:03:32.788Z,88.43
2023-05-03T01:04:32.651Z,88.53
2023-05-03T01:05:32.674Z,88.64
2023-05-03T01:06:32.733Z,88.98
2023-05-03T01:07:32.645Z,88.78
2023-05-03T01:08:32.594Z,88.68
2023-05-03T01:09:32.656Z,88.78
2023-05-03T01:10:32.579Z,88.78
2023-05-03T01:11:32.585Z,88.78
2023-05-03T01:12:32.590Z,88.89
2023-05-03T01:13:32.563Z,88.89
2023-05-03T01:14:32.531Z,89.09
2023-05-03T01:15:32.531Z,89.29
2023-05-03T01:16:32.534Z,89.40
2023-05-03T01:17:32.587Z,89.40
2023-05-03T01:18:32.484Z,89.60
2023-05-03T01:19:32.492Z,89.40
2023-05-03T01:20:32.456Z,89.60
2023-05-03T01:21:32.462Z,89.64
2023-05-03T01:22:32.423Z,89.44
2023-05-03T01:23:32.454Z,89.54
2023-05-03T01:24:32.391Z,89.44
2023-05-03T01:25:32.419Z,89.44
2023-05-03T01:26:32.380Z,89.54
2023-05-03T01:27:32.375Z,89.75
2023-05-03T01:28:32.372Z,89.75
2023-05-03T01:29:32.383Z,89.64
2023-05-03T01:30:32.307Z,89.54
2023-05-03T01:31:32.363Z,89.44
2023-05-03T01:32:32.312Z,89.54
2023-05-03T01:33:32.326Z,89.75
2023-05-03T01:34:32.265Z,89.64
2023-05-03T01:35:32.270Z,89.64
2023-05-03T01:36:32.250Z,89.44
2023-05-03T01:37:32.246Z,89.34
2023-05-03T01:38:32.218Z,89.64
2023-05-03T01:39:32.280Z,89.64
2023-05-03T01:40:32.188Z,89.85
2023-05-03T01:41:32.204Z,89.75
2023-05-03T01:42:32.176Z,89.64
2023-05-03T01:43:32.177Z,89.44
2023-05-03T01:44:32.154Z,89.64
2023-05-03T01:45:32.168Z,89.95
2023-05-03T01:46:32.199Z,90.06
2023-05-03T01:47:32.120Z,90.26
2023-05-03T01:48:32.100Z,90.51
2023-05-03T01:49:32.118Z,90.30
2023-05-03T01:50:32.057Z,90.20
2023-05-03T01:51:32.059Z,90.61
2023-05-03T01:52:32.053Z,90.72
2023-05-03T01:53:32.077Z,90.72
2023-05-03T01:54:32.037Z,90.72
2023-05-03T01:55:32.049Z,90.81
2023-05-03T01:56:31.986Z,90.72
2023-05-03T01:57:31.989Z,90.61
2023-05-03T01:58:31.961Z,90.92
2023-05-03T01:59:32.005Z,90.81
2023-05-03T02:00:31.924Z,90.55
2023-05-03T02:01:32.053Z,90.86
2023-05-03T02:02:31.926Z,90.96
2023-05-03T02:03:31.958Z,90.86
2023-05-03T02:04:31.930Z,90.96
2023-05-03T02:05:31.914Z,91.17
2023-05-03T02:06:31.942Z,91.06
2023-05-03T02:07:31.867Z,91.17
2023-05-03T02:08:31.850Z,91.27
2023-05-03T02:09:31.839Z,91.17
2023-05-03T02:10:31.813Z,91.27
2023-05-03T02:11:31.814Z,91.27
2023-05-03T02:12:31.812Z,91.06
2023-05-03T02:13:31.808Z,91.06
2023-05-03T02:14:31.744Z,91.17
2023-05-03T02:15:31.749Z,91.27
2023-05-03T02:16:31.790Z,91.17
2023-05-03T02:17:31.834Z,91.47
2023-05-03T02:18:31.692Z,91.47
2023-05-03T02:19:31.733Z,91.52
2023-05-03T02:20:31.661Z,91.52
2023-05-03T02:21:31.696Z,91.62
2023-05-03T02:22:31.662Z,91.72
2023-05-03T02:23:31.658Z,91.72
2023-05-03T02:24:31.626Z,91.42
2023-05-03T02:25:31.670Z,91.42
2023-05-03T02:26:31.584Z,91.72
2023-05-03T02:27:31.614Z,91.72
2023-05-03T02:28:31.579Z,91.62
2023-05-03T02:29:31.585Z,91.31
2023-05-03T02:30:31.562Z,91.52
2023-05-03T02:31:31.660Z,91.52
2023-05-03T02:32:31.602Z,91.62
2023-05-03T02:33:31.554Z,91.72
2023-05-03T02:34:31.495Z,91.52
2023-05-03T02:35:31.529Z,91.42
2023-05-03T02:36:31.468Z,91.42
2023-05-03T02:37:31.467Z,91.21
2023-05-03T02:38:31.469Z,91.11
2023-05-03T02:39:31.452Z,91.31
2023-05-03T02:40:31.423Z,91.21
2023-05-03T02:41:31.474Z,91.00
2023-05-03T02:42:31.409Z,90.90
2023-05-03T02:43:31.399Z,90.90
2023-05-03T02:44:33.538Z,91.00
2023-05-03T02:45:31.363Z,91.11
2023-05-03T02:46:31.391Z,91.11
2023-05-03T02:47:31.364Z,91.11
2023-05-03T02:48:31.314Z,91.31
2023-05-03T02:49:31.349Z,91.36
2023-05-03T02:50:31.276Z,91.25
2023-05-03T02:51:31.316Z,91.25
2023-05-03T02:52:31.269Z,90.84
2023-05-03T02:53:31.325Z,90.64
2023-05-03T02:54:31.262Z,90.73
2023-05-03T02:55:31.229Z,90.84
2023-05-03T02:56:31.205Z,90.94
2023-05-03T02:57:31.237Z,90.73
2023-05-03T02:58:31.177Z,90.73
2023-05-03T02:59:31.256Z,90.73
2023-05-03T03:00:31.183Z,90.43
2023-05-03T03:01:31.263Z,90.33
2023-05-03T03:02:31.173Z,90.53
2023-05-03T03:03:31.269Z,90.94
2023-05-03T03:04:31.092Z,91.30
2023-05-03T03:05:31.127Z,91.40
2023-05-03T03:06:31.094Z,91.09
2023-05-03T03:07:31.092Z,91.09
2023-05-03T03:08:31.076Z,91.19
2023-05-03T03:09:31.080Z,91.19
2023-05-03T03:10:31.044Z,91.19
2023-05-03T03:11:31.029Z,91.09
2023-05-03T03:12:30.992Z,90.99
2023-05-03T03:13:31.012Z,90.99
2023-05-03T03:14:30.964Z,91.09
2023-05-03T03:15:30.975Z,91.30
2023-05-03T03:16:31.078Z,91.30
2023-05-03T03:17:30.966Z,91.19
2023-05-03T03:18:30.929Z,90.99
2023-05-03T03:19:30.944Z,91.09
2023-05-03T03:20:30.902Z,91.09
2023-05-03T03:21:30.936Z,90.88
2023-05-03T03:22:30.890Z,90.88
2023-05-03T03:23:30.877Z,90.78
2023-05-03T03:24:30.851Z,90.99
2023-05-03T03:25:30.877Z,91.30
2023-05-03T03:26:30.825Z,91.09
2023-05-03T03:27:30.850Z,91.19
2023-05-03T03:28:30.795Z,91.34
2023-05-03T03:29:30.804Z,91.54
2023-05-03T03:30:30.779Z,91.85
2023-05-03T03:31:30.866Z,91.96
2023-05-03T03:32:30.740Z,92.06
2023-05-03T03:33:30.763Z,92.37
2023-05-03T03:34:30.742Z,92.47
2023-05-03T03:35:30.734Z,92.68
2023-05-03T03:36:30.687Z,92.68
2023-05-03T03:37:30.694Z,92.68
2023-05-03T03:38:30.685Z,92.72
2023-05-03T03:39:30.682Z,92.82
2023-05-03T03:40:30.660Z,92.72
2023-05-03T03:41:30.641Z,92.82
2023-05-03T03:42:30.637Z,93.03
2023-05-03T03:43:30.591Z,93.03
2023-05-03T03:44:30.630Z,93.13
2023-05-03T03:45:30.581Z,93.24
2023-05-03T03:46:30.627Z,93.34
2023-05-03T03:47:30.567Z,93.54
2023-05-03T03:48:30.550Z,93.69
2023-05-03T03:49:30.565Z,93.79
2023-05-03T03:50:30.550Z,93.90
2023-05-03T03:51:30.500Z,94.10
2023-05-03T03:52:30.506Z,94.10
2023-05-03T03:53:30.481Z,94.00
2023-05-03T03:54:30.525Z,94.21
2023-05-03T03:55:30.472Z,94.31
2023-05-03T03:56:30.461Z,94.42
2023-05-03T03:57:30.453Z,94.52
2023-05-03T03:58:30.428Z,94.62
2023-05-03T03:59:30.408Z,94.72
2023-05-03T04:00:30.485Z,94.72
2023-05-03T04:01:30.392Z,94.62
2023-05-03T04:02:30.437Z,94.62
2023-05-03T04:03:30.437Z,94.72
2023-05-03T04:04:30.421Z,94.82
2023-05-03T04:05:30.308Z,94.82
2023-05-03T04:06:30.362Z,94.62
2023-05-03T04:07:30.286Z,94.67
2023-05-03T04:08:30.322Z,94.87
2023-05-03T04:09:30.261Z,94.97
2023-05-03T04:10:30.305Z,95.07
2023-05-03T04:11:30.273Z,95.28
2023-05-03T04:12:30.315Z,95.49
2023-05-03T04:13:30.210Z,95.70
2023-05-03T04:14:30.236Z,95.80
2023-05-03T04:15:30.180Z,95.80
2023-05-03T04:16:30.202Z,95.90
2023-05-03T04:17:30.200Z,96.01
2023-05-03T04:18:30.168Z,96.01
2023-05-03T04:19:30.122Z,96.01
2023-05-03T04:20:30.131Z,95.90
2023-05-03T04:21:30.103Z,95.90
2023-05-03T04:22:30.136Z,96.01
2023-05-03T04:23:30.082Z,96.21
2023-05-03T04:24:30.075Z,96.21
2023-05-03T04:25:30.069Z,96.42
2023-05-03T04:26:32.114Z,96.42
2023-05-03T04:27:30.083Z,96.47
2023-05-03T04:28:30.048Z,96.67
2023-05-03T04:29:29.998Z,96.88
2023-05-03T04:30:30.017Z,96.88
2023-05-03T04:31:30.110Z,96.98
2023-05-03T04:32:30.011Z,96.98
2023-05-03T04:33:29.937Z,96.98
2023-05-03T04:34:29.955Z,97.08
2023-05-03T04:35:29.970Z,97.19
2023-05-03T04:36:30.030Z,97.29
2023-05-03T04:37:29.912Z,97.39
2023-05-03T04:38:29.890Z,97.50
2023-05-03T04:39:29.858Z,97.50
2023-05-03T04:40:29.906Z,97.60
2023-05-03T04:41:29.850Z,97.71
2023-05-03T04:42:29.845Z,97.81
2023-05-03T04:43:29.809Z,97.91
2023-05-03T04:44:29.894Z,97.91
2023-05-03T04:45:29.831Z,98.01
2023-05-03T04:46:29.819Z,98.07
2023-05-03T04:47:29.832Z,98.07
2023-05-03T04:48:29.787Z,98.07
2023-05-03T04:49:29.748Z,98.18
2023-05-03T04:50:29.761Z,98.18
2023-05-03T04:51:29.782Z,98.28
2023-05-03T04:52:29.736Z,98.18
2023-05-03T04:53:29.717Z,98.18
2023-05-03T04:54:29.729Z,98.18
2023-05-03T04:55:29.693Z,98.28
2023-05-03T04:56:29.676Z,98.18
2023-05-03T04:57:29.628Z,98.18
2023-05-03T04:58:29.675Z,98.18
2023-05-03T04:59:29.592Z,98.18
2023-05-03T05:00:29.617Z,98.18
2023-05-03T05:01:29.608Z,98.13
2023-05-03T05:02:29.720Z,98.23
2023-05-03T05:03:29.595Z,98.23
2023-05-03T05:04:29.568Z,98.33
2023-05-03T05:05:29.575Z,98.33
2023-05-03T05:06:29.585Z,98.33
2023-05-03T05:07:29.529Z,98.44
2023-05-03T05:08:29.532Z,98.33
2023-05-03T05:09:29.478Z,98.39
2023-05-03T05:10:29.483Z,98.39
2023-05-03T05:11:29.493Z,98.39
2023-05-03T05:12:29.454Z,98.39
2023-05-03T05:13:29.436Z,98.29
2023-05-03T05:14:29.431Z,98.29
2023-05-03T05:15:29.394Z,98.19
2023-05-03T05:16:29.480Z,98.29
2023-05-03T05:17:29.498Z,98.14
2023-05-03T05:18:29.453Z,97.94
2023-05-03T05:19:29.360Z,97.94
2023-05-03T05:20:29.351Z,97.83
2023-05-03T05:21:29.364Z,97.83
2023-05-03T05:22:29.358Z,97.73
2023-05-03T05:23:29.332Z,97.63
2023-05-03T05:24:29.317Z,97.58
2023-05-03T05:25:29.337Z,97.38
2023-05-03T05:26:29.315Z,97.27
2023-05-03T05:27:29.236Z,97.17
2023-05-03T05:28:29.280Z,96.86
2023-05-03T05:29:29.233Z,96.55
2023-05-03T05:30:29.248Z,96.45
2023-05-03T05:31:29.218Z,96.34
2023-05-03T05:32:29.213Z,96.34
2023-05-03T05:33:29.304Z,96.14
2023-05-03T05:34:32.324Z,96.20
2023-05-03T05:35:29.178Z,95.89
2023-05-03T05:36:29.153Z,95.78
2023-05-03T05:37:29.119Z,95.78
2023-05-03T05:38:29.150Z,95.58
2023-05-03T05:39:29.126Z,95.27
2023-05-03T05:40:29.110Z,94.96
2023-05-03T05:41:29.084Z,94.96
2023-05-03T05:42:29.083Z,94.55
2023-05-03T05:43:29.020Z,94.51
2023-05-03T05:44:29.262Z,94.71
2023-05-03T05:45:29.042Z,93.88
2023-05-03T05:46:29.048Z,93.79
2023-05-03T05:47:29.016Z,93.88
2023-05-03T05:48:28.998Z,93.58
2023-05-03T05:49:28.993Z,93.54
2023-05-03T05:50:29.087Z,93.64
2023-05-03T05:51:28.927Z,92.92
2023-05-03T05:52:28.981Z,92.61
2023-05-03T05:53:28.901Z,92.20
2023-05-03T05:54:30.348Z,92.50
2023-05-03T05:55:28.885Z,92.92
2023-05-03T05:56:28.900Z,92.30
2023-05-03T05:57:28.852Z,91.95
2023-05-03T05:58:28.874Z,91.02
2023-05-03T05:59:28.886Z,90.61
2023-05-03T06:00:28.940Z,90.51
2023-05-03T06:01:28.810Z,90.61
2023-05-03T06:02:29.146Z,90.81
2023-05-03T06:03:28.927Z,90.72
2023-05-03T06:04:28.807Z,91.39
2023-05-03T06:05:28.903Z,91.39
2023-05-03T06:06:28.856Z,91.91
2023-05-03T06:07:28.718Z,90.88
2023-05-03T06:08:28.766Z,91.08
2023-05-03T06:09:28.706Z,91.70
2023-05-03T06:10:28.809Z,91.70
2023-05-03T06:11:28.712Z,90.57
2023-05-03T06:12:28.679Z,90.47
2023-05-03T06:13:28.660Z,89.44
2023-05-03T06:14:28.654Z,89.75
2023-05-03T06:15:28.673Z,90.42
2023-05-03T06:16:28.650Z,90.12
2023-05-03T06:17:28.692Z,90.53
2023-05-03T06:18:28.588Z,89.81
2023-05-03T06:19:28.594Z,89.81
2023-05-03T06:20:28.622Z,90.01
2023-05-03T06:21:28.581Z,90.53
2023-05-03T06:22:28.550Z,89.87
2023-05-03T06:23:28.571Z,89.76
2023-05-03T06:24:28.548Z,89.46
2023-05-03T06:25:28.526Z,90.08
2023-05-03T06:26:28.478Z,90.28
2023-05-03T06:27:28.496Z,90.65
2023-05-03T06:28:28.472Z,89.93
2023-05-03T06:29:28.468Z,89.42
2023-05-03T06:30:28.722Z,89.93
2023-05-03T06:31:28.555Z,89.72
2023-05-03T06:32:28.416Z,89.83
2023-05-03T06:33:28.408Z,90.24
2023-05-03T06:34:28.369Z,90.71
2023-05-03T06:35:28.433Z,91.02
2023-05-03T06:36:28.357Z,90.30
2023-05-03T06:37:28.371Z,90.09
2023-05-03T06:38:28.324Z,89.69
2023-05-03T06:39:28.350Z,89.48
2023-05-03T06:40:28.335Z,89.69
2023-05-03T06:41:28.346Z,90.50
2023-05-03T06:42:28.280Z,90.09
2023-05-03T06:43:28.343Z,89.78
2023-05-03T06:44:28.263Z,89.89
2023-05-03T06:45:28.294Z,90.16
2023-05-03T06:46:28.303Z,89.75
2023-05-03T06:47:28.245Z,88.86
2023-05-03T06:48:28.349Z,89.07
2023-05-03T06:49:28.218Z,89.75
2023-05-03T06:50:28.224Z,89.64
2023-05-03T06:51:28.174Z,89.64
2023-05-03T06:52:28.167Z,88.62
2023-05-03T06:53:28.151Z,89.13
2023-05-03T06:54:28.139Z,89.54
2023-05-03T06:55:28.155Z,88.82
2023-05-03T06:56:28.096Z,89.43
2023-05-03T06:57:28.980Z,89.33
2023-05-03T06:58:28.067Z,90.22
2023-05-03T06:59:28.128Z,88.17
2023-05-03T07:00:28.111Z,89.39
2023-05-03T07:01:28.074Z,88.98
2023-05-03T07:02:28.093Z,87.65
2023-05-03T07:03:28.106Z,88.47
2023-05-03T07:04:28.060Z,88.27
2023-05-03T07:05:27.997Z,89.25
2023-05-03T07:06:28.046Z,87.61
2023-05-03T07:07:27.974Z,87.71
2023-05-03T07:08:27.935Z,88.64
2023-05-03T07:09:42.173Z,89.66
2023-05-03T07:10:29.666Z,87.51
2023-05-03T07:11:27.917Z,87.57
2023-05-03T07:12:27.931Z,87.88
2023-05-03T07:13:28.168Z,88.49
2023-05-03T07:14:27.865Z,88.80
2023-05-03T07:15:27.896Z,88.39
2023-05-03T07:16:27.837Z,86.85
2023-05-03T07:17:27.849Z,86.96
2023-05-03T07:18:27.824Z,88.04
2023-05-03T07:19:27.824Z,87.32
2023-05-03T07:20:27.775Z,87.53
2023-05-03T07:21:27.814Z,86.30
2023-05-03T07:22:27.789Z,86.67
2023-05-03T07:23:27.764Z,86.16
2023-05-03T07:24:27.720Z,87.35
2023-05-03T07:25:27.834Z,87.24
2023-05-03T07:26:27.696Z,85.20
2023-05-03T07:27:27.756Z,84.79
2023-05-03T07:28:27.670Z,86.12
2023-05-03T07:29:27.788Z,86.38
2023-05-03T07:30:27.639Z,85.77
2023-05-03T07:31:27.680Z,83.89
2023-05-03T07:32:27.692Z,83.42
2023-05-03T07:33:27.685Z,83.62
2023-05-03T07:34:27.573Z,84.81
2023-05-03T07:35:27.621Z,83.69
2023-05-03T07:36:27.598Z,82.97
2023-05-03T07:37:27.576Z,82.97
2023-05-03T07:38:27.565Z,83.69
2023-05-03T07:39:27.577Z,83.85
2023-05-03T07:40:27.529Z,84.98
2023-05-03T07:41:27.557Z,83.30
2023-05-03T07:42:27.495Z,83.54
2023-05-03T07:43:27.525Z,83.92
2023-05-03T07:44:27.476Z,83.51
2023-05-03T07:45:27.559Z,82.79
2023-05-03T07:46:27.536Z,84.28
2023-05-03T07:47:27.489Z,83.67
2023-05-03T07:48:27.438Z,84.96
2023-05-03T07:49:27.432Z,83.84
2023-05-03T07:50:27.385Z,82.24
2023-05-03T07:51:27.407Z,83.53
2023-05-03T07:52:27.377Z,82.71
2023-05-03T07:53:27.377Z,82.41
2023-05-03T07:54:27.356Z,83.02
2023-05-03T07:55:27.310Z,83.02
2023-05-03T07:56:27.347Z,82.31
2023-05-03T07:57:27.327Z,82.61
2023-05-03T07:58:38.873Z,82.10
2023-05-03T07:59:27.278Z,82.31
2023-05-03T08:00:27.291Z,80.68
2023-05-03T08:01:27.224Z,82.10
2023-05-03T08:02:27.468Z,81.96
2023-05-03T08:03:27.420Z,81.66
2023-05-03T08:04:27.389Z,80.33
2023-05-03T08:05:27.376Z,81.04
2023-05-03T08:06:27.245Z,79.62
2023-05-03T08:07:27.156Z,81.86
2023-05-03T08:08:27.189Z,82.23
2023-05-03T08:09:27.144Z,81.62
2023-05-03T08:10:27.158Z,79.85
2023-05-03T08:11:27.114Z,80.77
2023-05-03T08:12:27.147Z,80.87
2023-05-03T08:13:27.113Z,80.97
2023-05-03T08:14:27.133Z,79.64
2023-05-03T08:15:27.062Z,81.48
2023-05-03T08:16:27.367Z,81.99
2023-05-03T08:17:27.053Z,81.85
2023-05-03T08:18:27.049Z,82.05
2023-05-03T08:19:27.028Z,80.79
2023-05-03T08:20:27.021Z,79.98
2023-05-03T08:21:27.047Z,79.94
2023-05-03T08:22:27.083Z,79.33
2023-05-03T08:23:26.941Z,80.35
2023-05-03T08:24:27.010Z,79.29
2023-05-03T08:25:26.921Z,78.38
2023-05-03T08:26:26.945Z,78.68
2023-05-03T08:27:26.907Z,78.08
2023-05-03T08:28:26.919Z,77.87
2023-05-03T08:29:27.758Z,78.38
2023-05-03T08:30:26.880Z,79.19
2023-05-03T08:31:26.886Z,79.90
2023-05-03T08:32:26.864Z,80.00
2023-05-03T08:33:26.802Z,77.67
2023-05-03T08:34:26.836Z,79.39
2023-05-03T08:35:26.839Z,78.78
2023-05-03T08:36:26.819Z,77.87
2023-05-03T08:37:26.773Z,77.73
2023-05-03T08:38:26.792Z,78.04
2023-05-03T08:39:26.735Z,78.44
2023-05-03T08:40:26.756Z,76.82
2023-05-03T08:41:26.909Z,77.49
2023-05-03T08:42:26.711Z,76.68
2023-05-03T08:43:26.743Z,75.90
2023-05-03T08:44:26.693Z,77.63
2023-05-03T08:45:26.680Z,76.65
2023-05-03T08:46:26.712Z,78.48
2023-05-03T08:47:26.651Z,78.04
2023-05-03T08:48:27.120Z,78.24
2023-05-03T08:49:26.602Z,76.78
2023-05-03T08:50:26.625Z,76.88
2023-05-03T08:51:26.650Z,77.70
2023-05-03T08:52:26.592Z,77.45
2023-05-03T08:53:26.542Z,77.45
2023-05-03T08:54:26.553Z,77.45
2023-05-03T08:55:26.550Z,77.36
2023-05-03T08:56:26.596Z,76.34
2023-05-03T08:57:26.491Z,77.86
2023-05-03T08:58:26.525Z,75.02
2023-05-03T08:59:26.477Z,75.90
2023-05-03T09:00:26.483Z,74.07
2023-05-03T09:01:26.506Z,74.78
2023-05-03T09:02:26.631Z,72.85
2023-05-03T09:03:26.503Z,73.77
2023-05-03T09:04:26.592Z,73.77
2023-05-03T09:05:26.560Z,72.75
2023-05-03T09:06:26.466Z,73.87
2023-05-03T09:07:26.387Z,75.19
2023-05-03T09:08:26.373Z,75.29
2023-05-03T09:09:26.369Z,73.93
2023-05-03T09:10:26.388Z,75.32
2023-05-03T09:11:26.399Z,75.69
2023-05-03T09:12:26.374Z,74.27
2023-05-03T09:13:26.290Z,73.56
2023-05-03T09:14:26.314Z,75.99
2023-05-03T09:15:26.266Z,77.01
2023-05-03T09:16:26.302Z,75.35
2023-05-03T09:17:26.230Z,73.53
2023-05-03T09:18:26.289Z,73.53
2023-05-03T09:19:26.202Z,73.86
2023-05-03T09:20:26.217Z,72.48
2023-05-03T09:21:26.185Z,74.51
2023-05-03T09:22:26.196Z,73.29
2023-05-03T09:23:26.201Z,73.09
2023-05-03T09:24:26.185Z,73.39
2023-05-03T09:25:26.215Z,74.51
2023-05-03T09:26:26.174Z,74.71
2023-05-03T09:27:26.115Z,72.72
2023-05-03T09:28:26.134Z,75.32
2023-05-03T09:29:26.098Z,76.40
2023-05-03T09:30:26.089Z,73.76
2023-05-03T09:31:26.077Z,75.49
2023-05-03T09:32:26.118Z,74.54
2023-05-03T09:33:26.040Z,75.15
2023-05-03T09:34:26.070Z,77.14
2023-05-03T09:35:26.002Z,76.23
2023-05-03T09:36:26.028Z,76.90
2023-05-03T09:37:26.002Z,73.09
2023-05-03T09:38:26.029Z,71.77
2023-05-03T09:39:25.946Z,72.99
2023-05-03T09:40:25.976Z,74.77
2023-05-03T09:41:25.940Z,72.44
2023-05-03T09:42:25.978Z,74.98
2023-05-03T09:43:25.895Z,70.52
2023-05-03T09:44:25.938Z,74.07
2023-05-03T09:45:25.856Z,74.47
2023-05-03T09:46:25.940Z,74.13
2023-05-03T09:47:25.997Z,71.64
2023-05-03T09:48:25.839Z,72.34
2023-05-03T09:49:25.879Z,74.27
2023-05-03T09:50:25.838Z,71.03
2023-05-03T09:51:25.786Z,73.32
2023-05-03T09:52:25.835Z,73.93
2023-05-03T09:53:25.768Z,71.60
2023-05-03T09:54:25.838Z,71.91
2023-05-03T09:55:25.752Z,71.94
2023-05-03T09:56:25.747Z,72.85
2023-05-03T09:57:25.759Z,72.04
2023-05-03T09:58:25.719Z,70.83
2023-05-03T09:59:25.680Z,71.53
2023-05-03T10:00:25.698Z,74.43
2023-05-03T10:01:25.814Z,73.19
2023-05-03T10:02:25.734Z,69.78
2023-05-03T10:03:25.663Z,71.09
2023-05-03T10:04:25.753Z,74.19
2023-05-03T10:05:25.607Z,72.75
2023-05-03T10:06:25.666Z,71.84
2023-05-03T10:07:25.613Z,73.96
2023-05-03T10:08:25.631Z,71.73
2023-05-03T10:09:25.552Z,69.01
2023-05-03T10:10:25.559Z,72.14
2023-05-03T10:11:25.536Z,72.34
2023-05-03T10:12:25.534Z,72.04
2023-05-03T10:13:25.519Z,72.38
2023-05-03T10:14:25.514Z,71.47
2023-05-03T10:15:25.475Z,72.28
2023-05-03T10:16:25.527Z,72.99
2023-05-03T10:17:35.309Z,72.04
2023-05-03T10:18:25.493Z,71.84
2023-05-03T10:19:25.420Z,71.30
2023-05-03T10:20:25.422Z,74.60
2023-05-03T10:21:25.408Z,70.66
2023-05-03T10:22:25.404Z,71.20
2023-05-03T10:23:25.372Z,72.81
2023-05-03T10:24:25.365Z,75.20
2023-05-03T10:25:25.364Z,72.11
2023-05-03T10:26:25.356Z,73.22
2023-05-03T10:27:25.310Z,72.31
2023-05-03T10:28:25.340Z,70.83
2023-05-03T10:29:25.356Z,71.03
2023-05-03T10:30:25.308Z,72.95
2023-05-03T10:31:25.373Z,70.49
2023-05-03T10:32:25.274Z,72.85
2023-05-03T10:33:25.262Z,70.86
2023-05-03T10:34:25.242Z,74.06
2023-05-03T10:35:25.204Z,70.83
2023-05-03T10:36:27.302Z,70.83
2023-05-03T10:37:25.178Z,70.32
2023-05-03T10:38:25.210Z,73.05
2023-05-03T10:39:25.226Z,70.56
2023-05-03T10:40:25.147Z,70.32
2023-05-03T10:41:25.150Z,72.24
2023-05-03T10:42:25.115Z,70.73
2023-05-03T10:43:25.119Z,73.35
2023-05-03T10:44:25.115Z,72.14
2023-05-03T10:45:25.069Z,71.23
2023-05-03T10:46:25.124Z,71.00
2023-05-03T10:47:25.134Z,71.40
2023-05-03T10:48:25.059Z,72.38
2023-05-03T10:49:25.029Z,70.76
2023-05-03T10:50:25.052Z,71.20
2023-05-03T10:51:25.014Z,69.04
2023-05-03T10:52:24.986Z,68.64
2023-05-03T10:53:24.953Z,69.48
2023-05-03T10:54:25.007Z,72.51
2023-05-03T10:55:24.936Z,71.40
2023-05-03T10:56:24.938Z,72.71
2023-05-03T10:57:24.902Z,70.46
2023-05-03T10:58:24.906Z,71.67
2023-05-03T10:59:24.936Z,69.75
2023-05-03T11:00:24.897Z,70.42
2023-05-03T11:01:24.934Z,69.38
2023-05-03T11:02:24.904Z,67.47
2023-05-03T11:03:24.842Z,68.17
2023-05-03T11:04:24.868Z,69.28
2023-05-03T11:05:24.816Z,68.17
2023-05-03T11:06:24.857Z,66.66
2023-05-03T11:07:24.783Z,67.97
2023-05-03T11:08:24.807Z,70.59
2023-05-03T11:09:24.743Z,70.59
2023-05-03T11:10:24.760Z,70.09
2023-05-03T11:11:24.729Z,68.48
2023-05-03T11:12:24.724Z,69.48
2023-05-03T11:13:24.779Z,68.57
2023-05-03T11:14:24.723Z,67.77
2023-05-03T11:15:24.683Z,67.36
2023-05-03T11:16:24.750Z,65.35
2023-05-03T11:17:24.675Z,66.42
2023-05-03T11:18:24.650Z,70.66
2023-05-03T11:19:24.652Z,66.33
2023-05-03T11:20:24.621Z,70.06
2023-05-03T11:21:24.583Z,70.73
2023-05-03T11:22:24.626Z,69.52
2023-05-03T11:23:24.560Z,67.60
2023-05-03T11:24:24.615Z,65.22
2023-05-03T11:25:24.564Z,67.47
2023-05-03T11:26:24.569Z,67.27
2023-05-03T11:27:24.562Z,67.16
2023-05-03T11:28:24.517Z,65.45
2023-05-03T11:29:24.512Z,68.74
2023-05-03T11:30:24.503Z,70.66
2023-05-03T11:31:24.551Z,69.35
2023-05-03T11:32:24.492Z,67.47
2023-05-03T11:33:24.454Z,71.26
2023-05-03T11:34:24.506Z,68.54
2023-05-03T11:35:24.421Z,65.72
2023-05-03T11:36:24.415Z,66.80
2023-05-03T11:37:24.431Z,69.21
2023-05-03T11:38:24.422Z,67.27
2023-05-03T11:39:24.359Z,65.16
2023-05-03T11:40:24.384Z,68.78
2023-05-03T11:41:24.358Z,68.58
2023-05-03T11:42:24.326Z,69.15
2023-05-03T11:43:24.355Z,71.87
2023-05-03T11:44:24.297Z,67.47
2023-05-03T11:45:24.307Z,65.49
2023-05-03T11:46:24.444Z,65.12
2023-05-03T11:47:24.350Z,65.85
2023-05-03T11:48:24.348Z,67.36
2023-05-03T11:49:24.284Z,69.75
2023-05-03T11:50:24.273Z,66.83
2023-05-03T11:51:24.231Z,67.03
2023-05-03T11:52:24.222Z,63.84
2023-05-03T11:53:24.343Z,69.59
2023-05-03T11:54:27.072Z,68.95
2023-05-03T11:55:24.156Z,66.60
2023-05-03T11:56:24.198Z,66.19
2023-05-03T11:57:24.149Z,67.50
2023-05-03T11:58:24.117Z,68.38
2023-05-03T11:59:24.111Z,66.56
2023-05-03T12:00:24.104Z,66.16
2023-05-03T12:01:24.155Z,67.20
2023-05-03T12:02:24.206Z,67.40
2023-05-03T12:03:27.665Z,68.01
2023-05-03T12:04:24.140Z,68.21
2023-05-03T12:05:24.873Z,66.30
2023-05-03T12:06:24.528Z,65.09
2023-05-03T12:07:26.164Z,64.41
2023-05-03T12:08:25.623Z,65.92
2023-05-03T12:09:26.013Z,66.30
2023-05-03T12:10:26.448Z,67.07
2023-05-03T12:11:27.131Z,65.16
2023-05-03T12:12:27.715Z,63.87
2023-05-03T12:13:25.211Z,63.27
2023-05-03T12:14:24.018Z,67.30
2023-05-03T12:15:26.279Z,65.36
2023-05-03T12:16:23.962Z,65.76
2023-05-03T12:17:24.173Z,64.65
2023-05-03T12:18:24.081Z,64.65
2023-05-03T12:19:24.275Z,63.54
2023-05-03T12:22:26.436Z,66.10
2023-05-03T12:23:26.266Z,65.39
2023-05-03T12:24:24.843Z,66.00
2023-05-03T12:25:25.923Z,62.41
2023-05-03T12:26:23.945Z,65.53
2023-05-03T12:27:24.130Z,66.03
2023-05-03T12:28:23.773Z,67.34
2023-05-03T12:29:24.020Z,63.01
2023-05-03T12:30:23.869Z,63.71
2023-05-03T12:31:24.008Z,61.73
2023-05-03T12:32:23.715Z,62.13
2023-05-03T12:33:23.886Z,64.55
2023-05-03T12:35:27.009Z,64.62
2023-05-03T12:36:26.031Z,64.42
2023-05-03T12:37:27.120Z,65.50
2023-05-03T12:38:24.679Z,66.30
2023-05-03T12:39:27.231Z,64.59
2023-05-03T12:40:33.348Z,67.31
2023-05-03T12:41:51.994Z,65.30
2023-05-03T12:42:23.639Z,64.89
2023-05-03T12:43:23.658Z,64.29
2023-05-03T12:44:23.980Z,67.31
2023-05-03T12:45:23.947Z,64.59
2023-05-03T12:46:33.950Z,65.93
2023-05-03T12:47:28.421Z,63.71
2023-05-03T12:48:23.630Z,64.99
2023-05-03T12:49:24.035Z,64.19
2023-05-03T12:50:25.004Z,65.70
2023-05-03T12:51:25.965Z,64.96
2023-05-03T12:53:25.995Z,62.32
2023-05-03T12:54:27.161Z,63.82
2023-05-03T12:55:25.244Z,61.04
2023-05-03T12:56:24.765Z,65.06